Time;durP1;ratioP1;P1;durP2;ratioP2;P2;SDS_P1;SDS_P2;PMS_P1;PMS_P2;Temp;Humidity;BMP_temperature;BMP_pressure;BME280_temperature;BME280_humidity;BME280_pressure;Samples;Min_cycle;Max_cycle;Signal;HPM_P1;HPM_P2
2023/05/19 06:28:15;;;;;;;6.80;3.53;;;20.10;96.80;;;;;;4961522;23;20273;-78
2023/05/19 06:30:42;;;;;;;5.03;3.28;;;20.50;96.40;;;;;;4976144;28;20557;-77
2023/05/19 06:33:09;;;;;;;5.47;3.25;;;21.00;96.40;;;;;;4984217;28;20313;-72
2023/05/19 06:35:37;;;;;;;6.07;3.47;;;21.20;95.70;;;;;;4994438;28;20703;-72
2023/05/19 06:38:03;;;;;;;8.68;4.10;;;21.80;95.20;;;;;;4994976;28;20244;-74
2023/05/19 06:40:30;;;;;;;5.15;3.47;;;21.90;94.70;;;;;;4993767;28;20245;-73
2023/05/19 06:42:57;;;;;;;7.18;3.72;;;21.50;95.70;;;;;;4979165;28;20270;-73
2023/05/19 06:45:26;;;;;;;5.68;3.92;;;22.00;95.30;;;;;;4975317;28;20207;-73
2023/05/19 06:47:53;;;;;;;6.68;3.22;;;22.30;94.40;;;;;;4974382;28;20251;-73
2023/05/19 06:50:20;;;;;;;5.97;3.28;;;22.60;94.50;;;;;;4975543;28;20217;-74
2023/05/19 06:52:47;;;;;;;6.93;3.30;;;22.80;94.30;;;;;;4976145;28;20204;-73
2023/05/19 06:55:14;;;;;;;6.90;3.88;;;21.80;95.00;;;;;;4975951;28;20263;-73
2023/05/19 06:57:41;;;;;;;4.53;3.25;;;22.50;94.60;;;;;;4976207;28;20207;-73
2023/05/19 07:00:11;;;;;;;6.93;4.18;;;23.30;93.70;;;;;;4975655;28;20326;-73
2023/05/19 07:02:39;;;;;;;5.75;3.50;;;23.60;94.30;;;;;;4975915;28;20226;-73
2023/05/19 07:05:06;;;;;;;6.55;3.80;;;23.80;93.70;;;;;;4975971;28;20237;-72
2023/05/19 07:07:33;;;;;;;5.97;3.40;;;23.70;93.60;;;;;;4976087;28;20217;-72
2023/05/19 07:10:00;;;;;;;6.05;3.50;;;23.80;93.80;;;;;;4975774;28;20242;-73
2023/05/19 07:12:27;;;;;;;5.32;3.15;;;24.40;93.10;;;;;;4975948;28;20239;-72
2023/05/19 07:14:54;;;;;;;10.20;3.45;;;23.90;93.60;;;;;;4975142;28;20302;-73
2023/05/19 07:17:21;;;;;;;6.38;3.40;;;24.10;93.50;;;;;;4975652;28;20265;-72
2023/05/19 07:19:49;;;;;;;5.97;3.38;;;24.40;92.70;;;;;;4975457;28;20761;-73
2023/05/19 07:22:16;;;;;;;3.92;2.90;;;24.60;93.00;;;;;;4974992;28;20250;-72
2023/05/19 07:24:43;;;;;;;5.68;3.30;;;25.00;93.00;;;;;;4975266;28;20223;-72
2023/05/19 07:27:10;;;;;;;4.38;3.25;;;25.00;92.70;;;;;;4975371;28;20211;-73
2023/05/19 07:29:37;;;;;;;4.82;3.40;;;25.20;92.30;;;;;;4971813;28;20231;-73
2023/05/19 07:32:05;;;;;;;5.75;3.42;;;25.00;92.80;;;;;;4974743;28;20295;-74
2023/05/19 07:34:32;;;;;;;5.60;3.30;;;25.50;92.40;;;;;;4975395;28;20285;-71
2023/05/19 07:37:01;;;;;;;8.15;3.60;;;25.60;92.10;;;;;;4975796;28;20243;-72
2023/05/19 07:39:28;;;;;;;5.75;3.67;;;26.20;91.40;;;;;;4980081;28;20266;-72
2023/05/19 07:41:55;;;;;;;4.80;3.10;;;25.90;91.60;;;;;;4994084;28;20767;-72
2023/05/19 07:44:22;;;;;;;5.32;3.10;;;26.20;91.30;;;;;;4978953;28;20231;-72
2023/05/19 07:46:49;;;;;;;6.65;3.42;;;26.20;91.00;;;;;;4974909;28;20207;-73
2023/05/19 07:49:16;;;;;;;5.75;2.97;;;26.20;91.10;;;;;;4978928;28;20203;-73
2023/05/19 07:51:43;;;;;;;6.68;2.95;;;25.90;90.80;;;;;;4987530;28;20222;-73
2023/05/19 07:54:11;;;;;;;6.07;3.42;;;26.40;90.70;;;;;;4985411;28;20319;-71
2023/05/19 07:56:38;;;;;;;8.82;3.53;;;26.50;90.70;;;;;;4980108;28;20320;-72
2023/05/19 07:59:06;;;;;;;4.47;3.00;;;26.70;90.60;;;;;;4974840;28;20263;-72
2023/05/19 08:01:33;;;;;;;8.02;2.95;;;26.20;90.70;;;;;;4975615;28;20211;-74
2023/05/19 08:04:00;;;;;;;3.47;3.17;;;25.80;91.00;;;;;;4974532;28;20262;-72
2023/05/19 08:06:28;;;;;;;6.40;3.17;;;25.10;91.80;;;;;;4974763;28;20265;-73
2023/05/19 08:08:55;;;;;;;5.28;3.20;;;24.90;91.90;;;;;;4974467;28;20211;-75
2023/05/19 08:11:23;;;;;;;6.95;3.30;;;25.20;91.50;;;;;;4974090;28;20238;-72
2023/05/19 08:13:51;;;;;;;6.85;3.55;;;26.40;91.10;;;;;;4974149;28;20322;-74
2023/05/19 08:16:17;;;;;;;5.88;3.40;;;26.40;91.10;;;;;;4974571;28;20246;-73
2023/05/19 08:18:44;;;;;;;5.20;3.15;;;26.90;90.40;;;;;;4973659;28;20301;-73
2023/05/19 08:21:11;;;;;;;7.10;3.10;;;27.10;90.50;;;;;;4973952;28;20207;-73
2023/05/19 08:23:38;;;;;;;6.82;3.00;;;26.60;91.30;;;;;;4974000;28;20317;-73
2023/05/19 08:26:05;;;;;;;4.32;2.60;;;25.30;90.90;;;;;;4974424;28;20611;-73
2023/05/19 08:28:33;;;;;;;3.65;2.35;;;25.70;91.50;;;;;;4973858;28;20246;-73
2023/05/19 08:31:00;;;;;;;4.15;2.50;;;25.20;91.80;;;;;;4973828;28;20246;-73
2023/05/19 08:33:27;;;;;;;4.63;2.33;;;26.60;90.50;;;;;;4973971;28;20235;-73
2023/05/19 08:35:56;;;;;;;3.60;2.60;;;26.10;90.20;;;;;;4973650;28;20254;-73
2023/05/19 08:38:23;;;;;;;4.53;2.47;;;25.60;90.60;;;;;;4974281;28;20207;-73
2023/05/19 08:40:50;;;;;;;3.70;2.72;;;26.20;91.20;;;;;;4974073;28;20763;-73
2023/05/19 08:43:17;;;;;;;5.57;2.80;;;26.40;90.20;;;;;;4974056;28;20657;-73
2023/05/19 08:45:46;;;;;;;3.92;2.35;;;25.90;90.60;;;;;;4975883;28;20290;-73
2023/05/19 08:48:16;;;;;;;4.55;2.20;;;25.70;91.20;;;;;;4980836;28;20617;-72
2023/05/19 08:50:48;;;;;;;4.93;2.30;;;24.80;91.20;;;;;;4980888;28;20203;-74
2023/05/19 08:53:24;;;;;;;3.90;2.15;;;25.30;91.10;;;;;;4980587;28;20227;-73
2023/05/19 08:55:58;;;;;;;2.42;1.75;;;26.40;90.80;;;;;;4980629;28;20242;-72
2023/05/19 08:58:26;;;;;;;3.42;2.08;;;25.70;90.30;;;;;;4980375;28;20217;-72
2023/05/19 09:00:57;;;;;;;4.25;2.35;;;24.90;90.80;;;;;;4980382;28;20245;-72
2023/05/19 09:03:25;;;;;;;7.18;2.20;;;24.60;91.30;;;;;;4980588;28;20262;-72
2023/05/19 09:05:52;;;;;;;5.70;2.67;;;24.60;91.70;;;;;;4980573;28;20234;-72
2023/05/19 09:08:19;;;;;;;4.65;1.88;;;24.50;92.00;;;;;;4980454;28;20297;-72
2023/05/19 09:10:46;;;;;;;3.35;2.30;;;24.00;91.20;;;;;;4980291;28;20640;-72
2023/05/19 09:13:13;;;;;;;5.32;2.05;;;23.10;91.90;;;;;;4980408;28;20270;-73
2023/05/19 09:15:41;;;;;;;5.30;2.20;;;23.50;92.20;;;;;;4980109;28;20294;-72
2023/05/19 09:18:10;;;;;;;2.88;1.70;;;23.90;92.10;;;;;;4980279;28;20555;-72
2023/05/19 09:20:39;;;;;;;5.38;2.03;;;23.40;92.20;;;;;;4980495;28;20321;-72
2023/05/19 09:23:06;;;;;;;4.90;1.80;;;23.30;92.60;;;;;;4979933;28;20749;-72
2023/05/19 09:25:34;;;;;;;4.15;2.17;;;23.60;92.50;;;;;;4980136;28;20740;-72
2023/05/19 09:28:00;;;;;;;4.68;2.00;;;23.00;92.10;;;;;;4979978;28;20686;-72
2023/05/19 09:30:27;;;;;;;7.38;1.70;;;23.40;92.00;;;;;;4980303;28;20241;-72
2023/05/19 09:32:54;;;;;;;2.17;1.55;;;23.10;91.80;;;;;;4980029;28;20207;-72
2023/05/19 09:35:23;;;;;;;2.60;1.67;;;22.20;91.60;;;;;;4980292;28;20282;-71
2023/05/19 09:37:49;;;;;;;6.18;1.73;;;22.50;91.70;;;;;;4979953;28;20301;-72
2023/05/19 09:40:17;;;;;;;3.70;1.58;;;22.50;92.60;;;;;;4979931;28;20266;-71
2023/05/19 09:42:43;;;;;;;3.58;1.45;;;22.70;91.20;;;;;;4980191;28;20700;-72
2023/05/19 09:45:11;;;;;;;2.20;1.10;;;21.70;92.30;;;;;;4980141;28;20230;-72
2023/05/19 09:47:39;;;;;;;2.72;1.00;;;22.10;91.80;;;;;;4980065;28;20211;-72
2023/05/19 09:50:07;;;;;;;4.88;1.50;;;21.90;91.60;;;;;;4980663;28;20629;-72
2023/05/19 09:52:39;;;;;;;2.90;1.23;;;21.20;92.40;;;;;;4979921;28;20211;-72
2023/05/19 09:55:10;;;;;;;2.58;1.00;;;20.80;92.50;;;;;;4980220;28;20234;-72
2023/05/19 09:57:37;;;;;;;3.30;1.15;;;20.40;92.90;;;;;;4977592;28;20239;-72
2023/05/19 10:00:11;;;;;;;2.42;1.00;;;20.00;92.50;;;;;;4976709;28;20253;-72
2023/05/19 10:02:41;;;;;;;2.25;1.23;;;19.00;93.30;;;;;;4976717;28;20207;-73
2023/05/19 10:05:10;;;;;;;4.15;1.33;;;18.80;93.90;;;;;;4976921;28;20609;-73
2023/05/19 10:07:40;;;;;;;3.25;1.10;;;18.80;94.40;;;;;;4976362;28;20290;-72
2023/05/19 10:10:11;;;;;;;3.30;1.63;;;18.30;94.30;;;;;;4976579;28;20547;-72
2023/05/19 10:12:39;;;;;;;4.00;1.52;;;18.40;94.50;;;;;;4976312;28;20294;-72
2023/05/19 10:15:09;;;;;;;2.42;1.67;;;18.70;94.30;;;;;;4976118;28;20318;-72
2023/05/19 10:17:37;;;;;;;5.15;1.58;;;18.70;93.80;;;;;;4976450;28;20211;-72
2023/05/19 10:20:06;;;;;;;2.50;1.40;;;19.10;94.40;;;;;;4976337;28;20325;-72
2023/05/19 10:22:34;;;;;;;3.90;1.45;;;18.90;94.10;;;;;;4976093;28;20293;-72
2023/05/19 10:25:02;;;;;;;6.87;1.70;;;18.40;94.50;;;;;;4975993;28;20278;-72
2023/05/19 10:27:31;;;;;;;3.60;1.60;;;18.40;95.10;;;;;;4975827;28;20227;-72
2023/05/19 10:30:04;;;;;;;4.87;1.60;;;18.30;95.30;;;;;;4976255;28;20301;-73
2023/05/19 10:32:33;;;;;;;2.53;1.47;;;18.50;95.40;;;;;;4976710;28;20270;-73
2023/05/19 10:35:42;;;;;;;3.53;1.75;;;19.00;94.80;;;;;;4976101;28;20223;-73
2023/05/19 10:38:16;;;;;;;3.30;1.70;;;19.30;95.10;;;;;;4956361;28;20242;-72
2023/05/19 10:40:57;;;;;;;3.50;1.50;;;19.40;94.30;;;;;;4975800;28;20701;-72
2023/05/19 10:43:37;;;;;;;5.68;1.70;;;19.50;94.40;;;;;;4976058;28;20267;-72
2023/05/19 10:46:05;;;;;;;4.13;1.65;;;19.60;94.30;;;;;;4975993;28;20242;-73
2023/05/19 10:48:35;;;;;;;4.43;1.67;;;19.40;93.80;;;;;;4975619;28;20213;-74
2023/05/19 10:51:03;;;;;;;2.85;1.33;;;19.40;93.70;;;;;;4975647;28;20535;-74
2023/05/19 10:53:32;;;;;;;3.20;1.58;;;19.60;94.00;;;;;;4975775;28;20631;-75
2023/05/19 10:56:03;;;;;;;2.75;1.67;;;19.80;94.30;;;;;;4975786;28;20310;-72
2023/05/19 10:58:48;;;;;;;1.40;1.30;;;19.80;94.50;;;;;;4975522;28;20211;-73
2023/05/19 11:01:17;;;;;;;3.50;1.50;;;19.70;93.80;;;;;;4975513;28;21090;-73
2023/05/19 11:03:48;;;;;;;3.35;1.60;;;19.60;93.70;;;;;;4975210;28;20223;-74
2023/05/19 11:06:26;;;;;;;2.55;1.55;;;19.60;94.20;;;;;;4975877;28;20257;-74
2023/05/19 11:08:54;;;;;;;3.95;1.40;;;19.70;94.20;;;;;;4975161;28;20211;-74
2023/05/19 11:11:23;;;;;;;3.67;1.48;;;19.70;93.60;;;;;;4975520;28;20633;-73
2023/05/19 11:13:51;;;;;;;3.95;1.73;;;19.40;93.80;;;;;;4979782;28;20314;-75
2023/05/19 11:16:28;;;;;;;3.22;1.73;;;19.30;94.20;;;;;;4994987;28;20257;-74
2023/05/19 11:18:55;;;;;;;3.90;1.58;;;19.20;94.00;;;;;;4994786;28;20661;-75
2023/05/19 11:21:22;;;;;;;3.35;1.60;;;19.00;92.80;;;;;;4994742;28;20265;-73
2023/05/19 11:23:50;;;;;;;3.78;1.40;;;19.10;93.70;;;;;;4994674;28;20284;-74
2023/05/19 11:26:42;;;;;;;2.22;1.20;;;19.30;93.80;;;;;;4994583;28;20658;-74
2023/05/19 11:29:11;;;;;;;3.50;1.40;;;19.00;93.90;;;;;;4994579;28;20581;-74
2023/05/19 11:31:40;;;;;;;6.43;1.48;;;19.20;94.00;;;;;;4994522;28;20574;-73
2023/05/19 11:34:07;;;;;;;2.15;1.20;;;19.20;93.70;;;;;;4994532;28;20816;-75
2023/05/19 11:36:36;;;;;;;5.43;1.10;;;19.30;93.20;;;;;;4994515;28;20604;-73
2023/05/19 11:39:05;;;;;;;1.98;1.05;;;19.30;93.20;;;;;;4994319;28;20214;-73
2023/05/19 11:41:32;;;;;;;4.45;1.55;;;19.20;93.20;;;;;;4993973;28;20246;-73
2023/05/19 11:44:00;;;;;;;5.17;1.37;;;19.20;93.10;;;;;;4994192;28;20230;-73
2023/05/19 11:46:27;;;;;;;2.33;1.13;;;19.10;92.80;;;;;;4994325;28;20237;-74
2023/05/19 11:48:55;;;;;;;1.17;0.98;;;19.20;93.10;;;;;;4994110;28;20289;-73
2023/05/19 11:51:22;;;;;;;3.67;1.38;;;19.30;93.90;;;;;;4993908;28;20217;-74
2023/05/19 11:53:50;;;;;;;3.17;1.27;;;19.70;93.70;;;;;;4994208;28;20230;-74
2023/05/19 11:56:17;;;;;;;2.10;1.20;;;20.00;93.40;;;;;;4994402;28;20706;-73
2023/05/19 11:58:44;;;;;;;2.78;1.25;;;20.00;92.80;;;;;;4993994;28;20210;-74
2023/05/19 12:01:12;;;;;;;3.55;1.08;;;19.70;92.80;;;;;;4993454;28;20321;-73
2023/05/19 12:03:39;;;;;;;3.00;1.10;;;19.60;93.00;;;;;;4993582;28;20633;-73
2023/05/19 12:06:07;;;;;;;3.47;1.07;;;19.60;92.60;;;;;;4993470;28;20217;-73
2023/05/19 12:08:36;;;;;;;3.53;1.17;;;19.60;92.70;;;;;;4993969;28;20249;-74
2023/05/19 12:11:03;;;;;;;1.98;0.90;;;19.70;93.40;;;;;;4993889;28;20207;-74
2023/05/19 12:13:30;;;;;;;3.05;1.20;;;19.70;92.10;;;;;;4993607;28;20637;-74
2023/05/19 12:16:00;;;;;;;1.60;0.70;;;19.30;91.60;;;;;;4993592;28;20206;-74
2023/05/19 12:18:31;;;;;;;3.13;0.90;;;19.40;91.60;;;;;;4993671;28;20233;-73
2023/05/19 12:20:58;;;;;;;3.97;1.17;;;19.50;92.60;;;;;;4993240;28;20242;-74
2023/05/19 12:23:25;;;;;;;2.08;0.90;;;19.30;91.80;;;;;;4994302;28;20258;-73
2023/05/19 12:25:53;;;;;;;5.05;0.75;;;19.40;92.60;;;;;;4993600;28;20217;-74
2023/05/19 12:28:20;;;;;;;2.00;1.02;;;19.70;93.30;;;;;;4993551;28;20395;-74
2023/05/19 12:30:50;;;;;;;2.97;1.02;;;20.00;92.20;;;;;;4993372;28;20218;-74
2023/05/19 12:33:18;;;;;;;1.98;1.02;;;20.00;91.80;;;;;;4993368;28;20222;-74
2023/05/19 12:35:48;;;;;;;3.85;0.80;;;20.20;92.50;;;;;;4993662;28;20210;-74
2023/05/19 12:38:15;;;;;;;1.92;0.93;;;20.10;91.90;;;;;;4993623;28;20206;-74
2023/05/19 12:40:43;;;;;;;4.65;0.88;;;19.90;92.30;;;;;;4993369;28;20320;-76
2023/05/19 12:43:19;;;;;;;1.73;0.93;;;19.90;91.90;;;;;;4993304;28;20262;-74
2023/05/19 12:45:46;;;;;;;2.80;0.95;;;19.90;91.60;;;;;;4993511;28;20234;-73
2023/05/19 12:48:15;;;;;;;2.05;1.25;;;19.80;91.90;;;;;;4993362;28;20214;-73
2023/05/19 12:50:43;;;;;;;1.63;0.93;;;19.80;91.90;;;;;;4993558;28;20214;-73
2023/05/19 12:53:12;;;;;;;2.88;1.10;;;19.90;92.50;;;;;;4993390;28;20586;-73
2023/05/19 12:55:41;;;;;;;6.22;1.10;;;19.80;91.60;;;;;;4993263;28;20203;-74
2023/05/19 12:58:10;;;;;;;2.63;0.88;;;19.60;92.10;;;;;;4993617;28;20210;-73
2023/05/19 13:00:42;;;;;;;3.22;1.00;;;19.70;92.20;;;;;;4993424;28;20233;-74
2023/05/19 13:03:15;;;;;;;3.05;1.17;;;19.80;91.80;;;;;;4993475;28;20233;-73
2023/05/19 13:05:45;;;;;;;2.33;1.00;;;19.80;91.50;;;;;;4993716;28;20605;-73
2023/05/19 13:08:15;;;;;;;2.22;1.00;;;20.00;92.00;;;;;;4993285;28;20206;-73
2023/05/19 13:10:43;;;;;;;1.83;1.00;;;20.10;91.00;;;;;;4993397;28;20218;-73
2023/05/19 13:13:10;;;;;;;2.20;1.00;;;20.10;90.70;;;;;;4993189;28;20230;-74
2023/05/19 13:15:38;;;;;;;3.88;1.13;;;19.90;91.10;;;;;;4993001;28;20234;-74
2023/05/19 13:18:07;;;;;;;2.47;1.35;;;19.80;91.00;;;;;;4992808;28;20249;-74
2023/05/19 13:20:35;;;;;;;3.83;1.83;;;19.80;91.80;;;;;;4992936;28;20716;-73
2023/05/19 13:23:03;;;;;;;2.78;1.10;;;19.70;91.80;;;;;;4993032;28;20214;-73
2023/05/19 13:25:32;;;;;;;1.77;1.20;;;19.60;92.20;;;;;;4993111;28;20207;-73
2023/05/19 13:28:00;;;;;;;4.50;1.10;;;19.80;91.40;;;;;;4993065;28;20219;-74
2023/05/19 13:30:27;;;;;;;2.38;0.88;;;20.00;91.70;;;;;;4992700;28;20230;-73
2023/05/19 13:32:54;;;;;;;1.33;1.00;;;19.90;92.40;;;;;;4995021;28;20648;-74
2023/05/19 13:35:21;;;;;;;1.77;1.05;;;19.60;91.30;;;;;;4996349;28;20253;-73
2023/05/19 13:37:49;;;;;;;2.88;1.00;;;19.60;92.30;;;;;;4996649;28;20210;-74
2023/05/19 13:40:17;;;;;;;2.90;1.08;;;19.70;91.90;;;;;;4996577;28;20301;-74
2023/05/19 13:42:46;;;;;;;2.88;1.20;;;20.00;92.30;;;;;;4996524;28;20254;-74
2023/05/19 13:45:13;;;;;;;1.67;1.00;;;20.00;92.10;;;;;;4996342;28;20253;-73
2023/05/19 13:47:40;;;;;;;2.15;1.10;;;20.00;92.90;;;;;;4996450;28;20238;-74
2023/05/19 13:50:07;;;;;;;2.72;0.93;;;20.40;92.70;;;;;;4996508;28;20630;-74
2023/05/19 13:52:34;;;;;;;3.33;1.27;;;20.40;92.40;;;;;;4996473;28;20253;-74
2023/05/19 13:55:02;;;;;;;2.17;1.08;;;20.40;91.70;;;;;;4996712;28;20309;-74
2023/05/19 13:57:29;;;;;;;5.25;1.10;;;20.10;91.50;;;;;;4996663;28;20342;-74
2023/05/19 13:59:57;;;;;;;2.95;1.17;;;19.80;92.40;;;;;;4996293;28;20633;-73
2023/05/19 14:02:24;;;;;;;2.95;1.20;;;19.90;92.00;;;;;;4996399;28;20274;-73
2023/05/19 14:04:51;;;;;;;3.08;1.10;;;20.00;91.80;;;;;;4996017;28;20573;-74
2023/05/19 14:07:18;;;;;;;2.90;1.38;;;20.30;91.30;;;;;;4996324;28;20206;-74
2023/05/19 14:09:46;;;;;;;5.72;1.00;;;20.50;91.30;;;;;;4995928;28;20207;-74
2023/05/19 14:12:13;;;;;;;4.03;1.20;;;20.60;91.70;;;;;;4996116;28;20253;-75
2023/05/19 14:14:40;;;;;;;1.92;1.00;;;20.70;91.50;;;;;;4995825;28;20681;-74
2023/05/19 14:17:08;;;;;;;4.90;1.15;;;20.60;91.50;;;;;;4985197;28;20208;-72
2023/05/19 14:19:35;;;;;;;2.13;0.90;;;20.50;92.20;;;;;;4976265;28;20211;-71
2023/05/19 14:22:03;;;;;;;3.28;1.00;;;20.20;91.10;;;;;;4976557;28;20270;-73
2023/05/19 14:24:30;;;;;;;2.58;1.00;;;20.20;91.60;;;;;;4976265;28;20227;-72
2023/05/19 14:26:57;;;;;;;1.92;0.90;;;20.10;92.50;;;;;;4975784;28;20246;-73
2023/05/19 14:29:24;;;;;;;2.42;0.85;;;20.10;91.00;;;;;;4975325;28;20242;-74
2023/05/19 14:31:51;;;;;;;2.15;1.02;;;19.90;90.90;;;;;;4974882;28;20210;-72
2023/05/19 14:34:20;;;;;;;2.20;0.90;;;19.90;91.60;;;;;;4977812;28;20231;-73
2023/05/19 14:36:47;;;;;;;2.20;1.25;;;20.20;90.90;;;;;;4976492;28;20270;-74
2023/05/19 14:39:14;;;;;;;3.40;1.00;;;20.30;90.80;;;;;;4995517;28;20229;-74
2023/05/19 14:41:41;;;;;;;3.95;1.05;;;20.40;91.50;;;;;;4985780;28;20259;-74
2023/05/19 14:44:08;;;;;;;4.70;1.38;;;20.40;91.10;;;;;;4974985;28;20266;-74
2023/05/19 14:46:35;;;;;;;3.25;1.02;;;20.40;91.50;;;;;;4977084;28;20294;-74
2023/05/19 14:49:02;;;;;;;2.63;1.00;;;20.40;91.50;;;;;;4979955;28;20246;-73
2023/05/19 14:51:30;;;;;;;3.45;0.93;;;20.50;91.40;;;;;;4988704;28;20207;-74
2023/05/19 14:53:57;;;;;;;2.35;1.10;;;20.30;91.20;;;;;;4977321;28;20587;-75
2023/05/19 14:56:24;;;;;;;3.58;1.33;;;20.20;91.60;;;;;;4977717;28;20262;-74
2023/05/19 14:58:51;;;;;;;2.28;1.13;;;20.10;91.30;;;;;;4977800;28;20233;-73
2023/05/19 15:01:18;;;;;;;4.90;1.30;;;20.00;91.10;;;;;;4976894;28;20262;-73
2023/05/19 15:03:44;;;;;;;2.13;0.95;;;20.00;91.00;;;;;;4976648;28;20717;-73
2023/05/19 15:06:11;;;;;;;4.10;1.30;;;20.00;91.60;;;;;;4976592;28;20246;-73
2023/05/19 15:08:40;;;;;;;1.55;0.90;;;20.20;91.00;;;;;;4975552;28;20286;-73
2023/05/19 15:11:07;;;;;;;2.92;0.90;;;20.20;91.20;;;;;;4975304;28;20214;-73
2023/05/19 15:13:34;;;;;;;3.47;1.08;;;20.10;91.20;;;;;;4974697;28;20649;-73
2023/05/19 15:16:01;;;;;;;2.83;0.80;;;20.10;91.60;;;;;;4975557;28;20293;-72
2023/05/19 15:18:28;;;;;;;2.25;0.80;;;20.40;91.70;;;;;;4975268;28;20295;-73
2023/05/19 15:20:55;;;;;;;4.60;0.93;;;20.40;91.90;;;;;;4974939;28;20290;-73
2023/05/19 15:23:22;;;;;;;2.45;1.55;;;20.40;91.00;;;;;;4975471;28;20310;-73
2023/05/19 15:25:51;;;;;;;1.90;0.85;;;20.30;91.10;;;;;;4978393;28;20234;-73
2023/05/19 15:28:19;;;;;;;5.72;1.00;;;20.20;90.60;;;;;;4994436;28;20264;-73
2023/05/19 15:30:46;;;;;;;2.35;0.90;;;20.20;90.70;;;;;;4958327;28;20203;-74
2023/05/19 15:33:13;;;;;;;4.32;0.85;;;20.10;91.20;;;;;;4974986;28;20659;-74
2023/05/19 15:35:40;;;;;;;4.60;1.05;;;20.00;91.50;;;;;;4975762;28;20212;-73
2023/05/19 15:38:07;;;;;;;2.22;0.88;;;20.10;90.90;;;;;;4980811;28;20246;-73
2023/05/19 15:40:33;;;;;;;1.90;0.80;;;20.10;91.30;;;;;;4979705;28;20254;-74
2023/05/19 15:43:02;;;;;;;2.78;1.13;;;20.10;91.40;;;;;;4980293;28;20705;-73
2023/05/19 15:45:29;;;;;;;4.30;1.67;;;20.10;90.70;;;;;;4980222;28;20238;-73
2023/05/19 15:47:56;;;;;;;4.85;0.80;;;19.90;91.50;;;;;;4980383;28;20235;-74
2023/05/19 15:50:25;;;;;;;1.92;1.00;;;20.00;91.60;;;;;;4980062;28;20242;-73
2023/05/19 15:52:51;;;;;;;1.35;0.90;;;20.00;91.00;;;;;;4979733;28;20254;-73
2023/05/19 15:55:18;;;;;;;1.92;0.60;;;20.00;90.90;;;;;;4974535;28;20287;-73
2023/05/19 15:57:45;;;;;;;2.08;0.90;;;20.00;90.60;;;;;;4975309;28;20603;-73
2023/05/19 16:00:15;;;;;;;2.65;0.98;;;19.90;91.50;;;;;;4975327;28;20243;-73
2023/05/19 16:02:42;;;;;;;2.47;0.98;;;20.00;91.80;;;;;;4975372;28;20318;-73
2023/05/19 16:05:09;;;;;;;1.55;1.20;;;19.90;91.80;;;;;;4974983;28;20650;-73
2023/05/19 16:07:36;;;;;;;1.40;1.08;;;19.90;91.50;;;;;;4975305;28;20302;-73
2023/05/19 16:10:03;;;;;;;2.55;1.00;;;20.00;90.80;;;;;;4975122;28;20203;-73
2023/05/19 16:12:30;;;;;;;1.88;0.80;;;20.10;91.40;;;;;;4974890;28;20243;-73
2023/05/19 16:14:57;;;;;;;3.08;1.00;;;20.00;91.30;;;;;;4974577;28;20227;-72
2023/05/19 16:17:25;;;;;;;3.90;1.38;;;20.00;91.60;;;;;;4974399;28;20211;-73
2023/05/19 16:19:52;;;;;;;2.28;1.00;;;19.80;91.80;;;;;;4974095;28;20670;-73
2023/05/19 16:22:23;;;;;;;3.10;1.20;;;19.80;91.20;;;;;;4974123;28;20325;-73
2023/05/19 16:24:50;;;;;;;2.92;1.10;;;19.80;91.10;;;;;;4974683;28;20234;-73
2023/05/19 16:27:17;;;;;;;3.10;0.90;;;19.60;91.40;;;;;;4989665;28;20285;-73
2023/05/19 16:29:44;;;;;;;4.75;0.93;;;19.70;91.60;;;;;;4993553;28;20257;-73
2023/05/19 16:32:11;;;;;;;4.47;0.90;;;19.80;91.60;;;;;;4979752;28;20299;-73
2023/05/19 16:34:39;;;;;;;1.60;1.02;;;19.70;91.80;;;;;;4974048;28;20313;-73
2023/05/19 16:37:06;;;;;;;4.30;1.30;;;19.60;91.60;;;;;;4974294;28;20208;-73
2023/05/19 16:39:35;;;;;;;4.03;1.00;;;19.80;92.00;;;;;;4974079;28;20245;-73
2023/05/19 16:42:02;;;;;;;2.95;0.98;;;19.80;92.00;;;;;;4974016;28;20231;-72
2023/05/19 16:44:29;;;;;;;3.20;1.00;;;19.70;91.70;;;;;;4973834;28;20254;-73
2023/05/19 16:46:56;;;;;;;3.33;0.98;;;19.70;91.70;;;;;;4973840;28;20247;-73
2023/05/19 16:49:23;;;;;;;4.00;1.03;;;19.80;91.80;;;;;;4973944;28;20732;-72
2023/05/19 16:51:53;;;;;;;4.37;0.83;;;19.80;91.40;;;;;;4973987;28;20294;-72
2023/05/19 16:54:19;;;;;;;1.93;0.90;;;19.70;91.80;;;;;;4973983;28;20223;-72
2023/05/19 16:56:46;;;;;;;3.08;0.95;;;19.70;92.00;;;;;;4974504;28;20211;-73
2023/05/19 16:59:13;;;;;;;3.60;1.40;;;19.60;92.70;;;;;;4973906;28;20290;-73
2023/05/19 17:01:40;;;;;;;3.92;0.90;;;19.60;91.80;;;;;;4973690;28;20290;-73
2023/05/19 17:04:07;;;;;;;2.92;0.88;;;19.70;92.00;;;;;;4974206;28;20646;-73
2023/05/19 17:06:34;;;;;;;2.33;0.90;;;19.80;92.20;;;;;;4974468;28;20257;-73
2023/05/19 17:09:03;;;;;;;3.20;1.00;;;19.60;92.00;;;;;;4978269;28;20211;-73
2023/05/19 17:11:29;;;;;;;2.28;0.93;;;19.50;92.30;;;;;;4977424;28;20203;-73
2023/05/19 17:13:56;;;;;;;2.63;0.90;;;19.30;92.40;;;;;;4977498;28;20778;-73
2023/05/19 17:16:23;;;;;;;6.65;1.15;;;19.30;92.70;;;;;;4977295;28;20238;-73
2023/05/19 17:18:50;;;;;;;3.97;1.10;;;19.40;92.40;;;;;;4977392;28;20293;-73
2023/05/19 17:21:17;;;;;;;2.08;0.93;;;19.40;92.40;;;;;;4977209;28;20718;-73
2023/05/19 17:23:44;;;;;;;4.97;1.20;;;19.40;92.40;;;;;;4977240;28;21360;-73
2023/05/19 17:26:12;;;;;;;4.00;1.03;;;19.30;92.50;;;;;;4983675;28;20241;-72
2023/05/19 17:28:39;;;;;;;1.63;0.73;;;19.40;92.90;;;;;;4996181;28;20297;-73
2023/05/19 17:31:11;;;;;;;4.70;1.17;;;19.50;92.70;;;;;;4992001;28;20235;-73
2023/05/19 17:33:37;;;;;;;3.67;1.30;;;19.50;92.70;;;;;;4977232;28;20331;-73
2023/05/19 17:36:05;;;;;;;2.87;1.10;;;19.30;92.60;;;;;;4977172;28;20250;-73
2023/05/19 17:38:33;;;;;;;1.80;0.80;;;19.20;92.70;;;;;;4977056;28;20665;-73
2023/05/19 17:41:01;;;;;;;3.28;1.00;;;19.10;93.00;;;;;;4976931;28;20243;-73
2023/05/19 17:43:30;;;;;;;1.77;1.10;;;19.20;92.60;;;;;;4976788;28;20237;-73
2023/05/19 17:45:56;;;;;;;4.38;1.00;;;19.30;93.10;;;;;;4977024;28;20238;-73
2023/05/19 17:48:24;;;;;;;2.43;0.90;;;19.30;92.90;;;;;;4976940;28;20265;-72
2023/05/19 17:50:51;;;;;;;2.43;0.90;;;19.30;92.80;;;;;;4976829;28;20199;-73
2023/05/19 17:53:18;;;;;;;2.50;1.03;;;19.20;93.00;;;;;;4976590;28;20318;-73
2023/05/19 17:55:52;;;;;;;2.17;0.90;;;19.20;93.00;;;;;;4977030;28;20294;-73
2023/05/19 17:58:19;;;;;;;4.50;0.93;;;19.20;93.20;;;;;;4977083;28;20254;-72
2023/05/19 18:00:48;;;;;;;1.83;0.93;;;19.10;93.30;;;;;;4976088;28;20233;-73
2023/05/19 18:03:15;;;;;;;5.60;1.20;;;19.10;93.20;;;;;;4976322;28;20267;-73
2023/05/19 18:05:43;;;;;;;4.73;2.07;;;18.90;93.50;;;;;;4975356;28;20238;-73
2023/05/19 18:08:12;;;;;;;4.37;1.10;;;18.80;93.60;;;;;;4975085;28;20241;-72
2023/05/19 18:10:41;;;;;;;4.00;1.00;;;18.80;93.80;;;;;;4972718;28;20330;-72
2023/05/19 18:13:09;;;;;;;2.90;1.10;;;18.80;93.80;;;;;;4975086;28;20231;-72
2023/05/19 18:15:36;;;;;;;3.40;1.10;;;18.70;94.30;;;;;;4975163;28;20231;-72
2023/05/19 18:18:06;;;;;;;1.77;1.00;;;18.70;94.50;;;;;;4974463;28;20231;-72
2023/05/19 18:20:33;;;;;;;3.27;1.13;;;18.50;94.60;;;;;;4974529;28;20203;-72
2023/05/19 18:23:01;;;;;;;3.77;1.03;;;18.50;94.80;;;;;;4972266;28;20309;-73
2023/05/19 18:25:28;;;;;;;2.60;0.97;;;18.50;94.70;;;;;;4975405;28;20535;-72
2023/05/19 18:27:55;;;;;;;2.67;1.00;;;18.50;94.80;;;;;;4975576;28;20211;-72
2023/05/19 18:30:22;;;;;;;3.10;0.90;;;18.40;95.00;;;;;;4974733;28;20235;-73
2023/05/19 18:32:49;;;;;;;4.17;1.20;;;18.40;95.00;;;;;;4974639;28;20295;-72
2023/05/19 18:35:19;;;;;;;5.77;1.30;;;18.50;95.00;;;;;;4974358;28;20627;-72
2023/05/19 18:37:46;;;;;;;2.93;1.00;;;18.40;95.10;;;;;;4974594;28;20210;-72
2023/05/19 18:40:13;;;;;;;2.53;1.00;;;18.40;95.10;;;;;;4974168;28;20615;-72
2023/05/19 18:42:40;;;;;;;1.27;0.80;;;18.10;95.30;;;;;;4972500;28;20341;-72
2023/05/19 18:45:07;;;;;;;5.17;1.07;;;18.00;95.60;;;;;;4974341;28;20250;-72
2023/05/19 18:47:34;;;;;;;2.30;1.07;;;18.00;95.80;;;;;;4974282;28;20235;-72
2023/05/19 18:50:01;;;;;;;2.07;0.90;;;17.80;95.80;;;;;;4971248;28;21066;-72
2023/05/19 18:52:30;;;;;;;4.90;1.13;;;17.80;95.80;;;;;;4973700;28;20615;-72
2023/05/19 18:54:58;;;;;;;3.33;1.03;;;17.70;96.10;;;;;;4973834;28;20218;-72
2023/05/19 18:57:25;;;;;;;5.87;1.37;;;17.70;96.10;;;;;;4974360;28;20208;-72
2023/05/19 18:59:52;;;;;;;3.23;1.30;;;17.70;96.10;;;;;;4974231;28;20234;-72
2023/05/19 19:02:19;;;;;;;4.70;1.00;;;17.70;96.20;;;;;;4974002;28;20203;-72
2023/05/19 19:04:46;;;;;;;3.30;1.10;;;17.70;96.10;;;;;;4973929;28;20306;-72
2023/05/19 19:07:13;;;;;;;3.53;1.00;;;17.70;96.30;;;;;;4974322;28;20209;-72
2023/05/19 19:09:42;;;;;;;3.23;0.90;;;17.40;96.50;;;;;;4973962;28;20286;-72
2023/05/19 19:12:09;;;;;;;2.93;1.33;;;17.30;96.60;;;;;;4973865;28;20203;-72
2023/05/19 19:14:37;;;;;;;3.57;1.20;;;17.30;96.70;;;;;;4973619;28;20226;-72
2023/05/19 19:17:04;;;;;;;1.43;1.00;;;17.40;96.60;;;;;;4974009;28;20282;-72
2023/05/19 19:19:31;;;;;;;3.53;1.20;;;17.40;96.60;;;;;;4974027;28;20655;-72